Time;durP1;ratioP1;P1;durP2;ratioP2;P2;SDS_P1;SDS_P2;PMS_P1;PMS_P2;Temp;Humidity;BMP_temperature;BMP_pressure;BME280_temperature;BME280_humidity;BME280_pressure;Samples;Min_cycle;Max_cycle;Signal;HPM_P1;HPM_P2
2023/10/18 00:01:49;;;;;;;9.73;5.17;;;;;;;5.29;67.27;100751.87;1764326;81;21610;-74
2023/10/18 00:04:22;;;;;;;10.40;5.65;;;;;;;5.23;67.44;100742.98;1764355;81;21600;-73
2023/10/18 00:06:49;;;;;;;11.45;5.53;;;;;;;5.19;67.64;100743.77;1764325;81;21103;-72
2023/10/18 00:12:07;;;;;;;8.55;4.45;;;;;;;5.15;67.93;100746.95;1764636;81;21143;-73
2023/10/18 00:14:36;;;;;;;9.58;5.03;;;;;;;5.15;68.18;100739.66;1780589;80;21115;-73
2023/10/18 00:17:05;;;;;;;12.37;5.42;;;;;;;5.16;68.23;100733.21;1781334;80;21254;-73
2023/10/18 00:19:34;;;;;;;11.30;5.58;;;;;;;5.17;68.31;100739.50;1781336;80;21098;-71
2023/10/18 00:22:03;;;;;;;10.03;5.25;;;;;;;5.18;68.39;100735.27;1781194;80;21123;-73
2023/10/18 00:24:32;;;;;;;9.50;5.20;;;;;;;5.20;68.30;100729.68;1778342;80;21119;-74
2023/10/18 00:27:03;;;;;;;13.70;5.95;;;;;;;5.19;68.38;100734.26;1781420;80;21142;-72
2023/10/18 00:29:33;;;;;;;9.65;5.00;;;;;;;5.18;68.45;100733.91;1781413;80;21190;-73
2023/10/18 00:32:03;;;;;;;10.90;4.90;;;;;;;5.17;68.46;100730.84;1781355;80;21588;-73
2023/10/18 00:34:32;;;;;;;8.58;4.67;;;;;;;5.13;68.62;100728.59;1781203;80;21135;-73
2023/10/18 00:37:02;;;;;;;9.78;4.62;;;;;;;5.14;68.76;100734.38;1781218;80;21542;-73
2023/10/18 00:39:32;;;;;;;9.73;5.62;;;;;;;5.15;68.81;100730.15;1781344;80;21139;-71
2023/10/18 00:44:51;;;;;;;13.28;6.20;;;;;;;5.13;68.98;100726.73;1661029;85;21146;-75
2023/10/18 00:47:22;;;;;;;11.55;6.25;;;;;;;5.12;69.10;100729.60;1660922;86;21122;-74
2023/10/18 00:49:52;;;;;;;12.03;7.03;;;;;;;5.09;69.20;100722.11;1660720;86;21653;-72
2023/10/18 00:52:24;;;;;;;12.43;6.40;;;;;;;5.08;69.34;100722.27;1660728;86;21582;-73
2023/10/18 00:54:57;;;;;;;12.73;5.40;;;;;;;5.12;69.44;100721.45;1830112;77;22184;-72
2023/10/18 00:57:34;;;;;;;10.93;5.85;;;;;;;5.02;69.48;100721.53;1724277;83;21106;-74
2023/10/18 00:59:59;;;;;;;12.30;6.12;;;;;;;4.98;69.55;100724.20;1736110;82;21175;-75
2023/10/18 01:02:35;;;;;;;11.57;5.28;;;;;;;4.96;69.71;100722.14;1724382;83;21169;-73
2023/10/18 01:05:12;;;;;;;11.15;5.97;;;;;;;4.96;69.87;100719.43;1739858;82;21629;-75
2023/10/18 01:07:42;;;;;;;14.33;6.60;;;;;;;4.88;69.93;100726.98;1699035;83;21094;-74
2023/10/18 01:10:12;;;;;;;13.20;6.22;;;;;;;4.81;70.20;100726.39;1740287;82;21155;-74
2023/10/18 01:12:44;;;;;;;15.40;9.45;;;;;;;4.76;70.45;100724.98;1724355;83;21193;-72
2023/10/18 01:15:19;;;;;;;19.42;10.00;;;;;;;4.77;70.68;100729.41;1740174;82;21613;-71
2023/10/18 01:17:43;;;;;;;15.00;7.70;;;;;;;4.77;70.63;100726.70;1724082;83;21184;-73
2023/10/18 01:20:19;;;;;;;11.88;6.42;;;;;;;4.78;70.68;100722.13;1724547;83;21157;-72
2023/10/18 01:22:43;;;;;;;16.45;9.13;;;;;;;4.78;70.65;100720.26;1723480;83;21584;-73
2023/10/18 01:25:13;;;;;;;16.75;8.50;;;;;;;4.78;70.67;100728.41;1724356;83;21178;-72
2023/10/18 01:27:43;;;;;;;14.35;7.85;;;;;;;4.80;70.70;100726.04;1724156;83;21113;-72
2023/10/18 01:30:15;;;;;;;15.23;6.92;;;;;;;4.80;70.65;100713.32;1724163;83;21121;-74
2023/10/18 01:32:44;;;;;;;16.35;7.62;;;;;;;4.82;70.60;100714.53;1724362;83;21573;-71
2023/10/18 01:35:15;;;;;;;13.40;6.60;;;;;;;4.80;70.53;100716.54;1724322;83;21549;-71
2023/10/18 01:37:44;;;;;;;12.47;6.20;;;;;;;4.76;70.62;100714.13;1724285;83;21110;-73
2023/10/18 01:40:29;;;;;;;10.05;5.78;;;;;;;4.78;70.77;100716.69;1724174;83;21173;-73
2023/10/18 01:42:56;;;;;;;13.00;6.92;;;;;;;4.81;70.77;100716.89;1723626;83;21161;-73
2023/10/18 01:45:35;;;;;;;13.18;6.17;;;;;;;4.82;70.86;100711.81;1724176;83;21106;-74
2023/10/18 01:47:59;;;;;;;13.08;7.10;;;;;;;4.83;70.86;100710.80;1723693;83;21162;-73
2023/10/18 01:50:29;;;;;;;13.93;8.08;;;;;;;4.82;70.86;100718.59;1724476;83;21153;-75
2023/10/18 01:53:00;;;;;;;19.82;11.28;;;;;;;4.80;70.86;100725.53;1723948;83;21181;-73
2023/10/18 01:55:31;;;;;;;16.52;10.13;;;;;;;4.77;70.92;100717.70;1783403;80;21150;-73
2023/10/18 01:57:59;;;;;;;17.98;10.72;;;;;;;4.72;71.10;100726.30;1783599;80;21604;-74
2023/10/18 02:00:41;;;;;;;18.05;12.00;;;;;;;4.67;71.24;100730.47;1783551;80;21115;-74
2023/10/18 02:03:00;;;;;;;19.27;12.68;;;;;;;4.61;71.38;100729.22;1780900;80;21162;-73
2023/10/18 02:05:30;;;;;;;19.00;12.58;;;;;;;4.56;71.54;100731.53;1783094;80;21119;-74
2023/10/18 02:08:01;;;;;;;19.73;13.45;;;;;;;4.51;71.72;100732.45;1782871;80;21574;-73
2023/10/18 02:10:32;;;;;;;22.65;13.85;;;;;;;4.41;71.88;100729.79;1782892;80;21592;-73
2023/10/18 02:13:03;;;;;;;19.35;11.40;;;;;;;4.33;72.13;100731.05;1782817;80;21119;-74
2023/10/18 02:15:32;;;;;;;17.10;10.93;;;;;;;4.31;72.41;100730.84;1782787;80;21084;-74
2023/10/18 02:18:02;;;;;;;15.30;9.15;;;;;;;4.33;72.63;100731.05;1783006;80;21099;-73
2023/10/18 02:20:31;;;;;;;12.85;8.03;;;;;;;4.31;72.76;100724.05;1782836;79;21096;-73
2023/10/18 02:22:59;;;;;;;13.18;7.17;;;;;;;4.28;72.75;100722.50;1782966;80;21103;-74
2023/10/18 02:25:38;;;;;;;13.00;6.28;;;;;;;4.24;72.78;100727.88;1783058;80;21115;-72
2023/10/18 02:28:07;;;;;;;17.67;8.33;;;;;;;4.19;72.77;100722.54;1782430;80;21557;-73
2023/10/18 02:30:33;;;;;;;13.35;7.12;;;;;;;4.17;72.96;100718.63;1782616;80;21539;-74
2023/10/18 02:33:05;;;;;;;13.05;6.53;;;;;;;4.19;73.05;100718.47;1782824;80;21162;-73
2023/10/18 02:35:40;;;;;;;12.40;6.97;;;;;;;4.16;73.00;100722.84;1782803;80;21116;-73
2023/10/18 02:38:08;;;;;;;11.05;5.90;;;;;;;4.13;73.15;100715.85;1782356;80;21531;-71
2023/10/18 02:40:43;;;;;;;12.90;6.50;;;;;;;4.13;73.32;100718.56;1782830;80;21123;-73
2023/10/18 02:43:11;;;;;;;11.90;5.53;;;;;;;4.13;73.48;100711.78;1782588;80;21179;-73
2023/10/18 02:45:42;;;;;;;11.08;5.90;;;;;;;4.10;73.63;100707.52;1783025;80;21130;-73
2023/10/18 02:48:13;;;;;;;19.07;8.53;;;;;;;4.08;73.80;100708.16;1782844;79;21564;-75
2023/10/18 02:50:41;;;;;;;12.82;6.78;;;;;;;4.06;73.89;100710.17;1783819;80;21095;-73
2023/10/18 02:53:10;;;;;;;17.07;7.87;;;;;;;4.08;74.03;100709.52;1783150;80;21205;-73
2023/10/18 02:55:41;;;;;;;13.98;7.55;;;;;;;4.08;74.10;100704.09;1783022;80;21119;-72
2023/10/18 02:58:10;;;;;;;14.05;6.85;;;;;;;4.08;74.18;100700.53;1782827;80;21620;-74
2023/10/18 03:00:42;;;;;;;14.25;6.55;;;;;;;4.08;74.25;100700.03;1783073;80;21162;-73
2023/10/18 03:03:12;;;;;;;11.93;7.03;;;;;;;4.11;74.25;100709.22;1782965;80;21608;-75
2023/10/18 03:05:41;;;;;;;12.55;6.62;;;;;;;4.09;74.22;100704.45;1782744;80;21115;-73
2023/10/18 03:08:11;;;;;;;11.53;6.28;;;;;;;4.10;74.23;100704.80;1782865;79;21127;-72
2023/10/18 03:10:45;;;;;;;13.60;6.80;;;;;;;4.08;74.23;100704.09;1783057;80;21135;-73
2023/10/18 03:13:17;;;;;;;14.10;7.22;;;;;;;4.07;74.28;100704.25;1782951;80;21115;-74
2023/10/18 03:16:38;;;;;;;14.25;6.65;;;;;;;4.03;74.31;100692.84;1782806;80;21546;-74
2023/10/18 03:18:25;;;;;;;13.80;6.58;;;;;;;4.01;74.31;100694.84;1705474;80;21143;-74
2023/10/18 03:20:55;;;;;;;12.90;6.47;;;;;;;3.99;74.37;100688.72;1783035;79;21131;-72
2023/10/18 03:23:26;;;;;;;13.62;6.92;;;;;;;3.99;74.49;100694.64;1783008;80;21111;-73
2023/10/18 03:26:08;;;;;;;14.00;6.03;;;;;;;3.98;74.54;100684.80;1782961;80;21383;-71
2023/10/18 03:28:35;;;;;;;12.82;6.55;;;;;;;3.99;74.60;100681.09;1782738;80;21170;-73
2023/10/18 03:34:08;;;;;;;13.05;6.60;;;;;;;3.96;74.80;100693.58;1782722;80;21115;-73
2023/10/18 03:36:32;;;;;;;12.23;6.92;;;;;;;3.95;74.87;100691.37;1779801;80;21107;-73
2023/10/18 03:39:00;;;;;;;13.70;7.28;;;;;;;3.96;74.90;100686.80;1782767;80;21578;-72
2023/10/18 03:41:33;;;;;;;18.25;8.43;;;;;;;3.93;74.90;100688.45;1782854;80;21100;-74
2023/10/18 03:44:06;;;;;;;17.05;7.60;;;;;;;3.89;74.92;100686.52;1782813;79;21147;-73
2023/10/18 03:46:38;;;;;;;18.52;10.80;;;;;;;3.87;75.05;100692.58;1782628;80;21111;-74
2023/10/18 03:49:04;;;;;;;18.73;9.90;;;;;;;3.86;75.20;100690.02;1782690;79;21554;-73
2023/10/18 03:51:36;;;;;;;19.73;9.43;;;;;;;3.84;75.36;100684.75;1782719;80;21139;-74
2023/10/18 03:54:05;;;;;;;13.15;8.45;;;;;;;3.83;75.52;100688.45;1780679;80;21108;-74
2023/10/18 03:56:36;;;;;;;16.32;10.45;;;;;;;3.81;75.54;100676.41;1774495;81;21590;-74
2023/10/18 03:59:41;;;;;;;18.42;10.08;;;;;;;3.81;75.59;100680.48;1774578;81;21108;-73
2023/10/18 04:01:49;;;;;;;18.10;11.08;;;;;;;3.81;75.71;100683.69;1761683;81;21138;-74
2023/10/18 04:04:18;;;;;;;19.35;10.08;;;;;;;3.81;75.78;100682.33;1774355;80;21676;-73
2023/10/18 04:06:49;;;;;;;17.07;9.38;;;;;;;3.81;75.91;100681.83;1774577;81;21604;-73
2023/10/18 04:09:18;;;;;;;18.98;9.70;;;;;;;3.82;75.84;100686.75;1774590;80;21633;-74
2023/10/18 04:11:47;;;;;;;16.93;9.73;;;;;;;3.78;75.78;100692.11;1774764;79;21120;-74
2023/10/18 04:14:17;;;;;;;21.70;12.33;;;;;;;3.74;75.86;100691.55;1774437;81;21139;-74
2023/10/18 04:16:54;;;;;;;20.37;12.00;;;;;;;3.72;76.00;100687.28;1774629;81;21649;-73
2023/10/18 04:19:19;;;;;;;21.48;10.93;;;;;;;3.69;76.21;100688.42;1774447;80;21127;-74
2023/10/18 04:21:53;;;;;;;18.42;10.53;;;;;;;3.70;76.42;100687.92;1774510;81;21127;-74
2023/10/18 04:24:23;;;;;;;18.82;10.38;;;;;;;3.71;76.54;100681.50;1774541;80;21161;-75
2023/10/18 04:26:53;;;;;;;20.68;12.33;;;;;;;3.72;76.57;100680.50;1775457;81;21567;-73
2023/10/18 04:29:26;;;;;;;17.92;10.98;;;;;;;3.73;76.61;100684.92;1774593;81;21104;-75
2023/10/18 04:31:56;;;;;;;18.70;11.70;;;;;;;3.75;76.64;100682.42;1774518;80;21563;-74
2023/10/18 04:34:33;;;;;;;20.45;14.60;;;;;;;3.77;76.69;100683.12;1774514;81;21567;-72
2023/10/18 04:37:01;;;;;;;17.40;11.00;;;;;;;3.80;76.69;100681.48;1774922;80;21606;-75
2023/10/18 04:39:31;;;;;;;21.75;14.73;;;;;;;3.79;76.59;100684.34;1774598;80;21723;-74
2023/10/18 04:42:03;;;;;;;25.75;15.60;;;;;;;3.78;76.64;100677.20;1774762;81;21147;-73
2023/10/18 04:44:34;;;;;;;18.40;9.30;;;;;;;3.78;76.78;100682.62;1774529;81;21170;-74
2023/10/18 04:47:14;;;;;;;14.40;7.30;;;;;;;3.78;76.74;100681.27;1774738;80;21120;-74
2023/10/18 04:49:38;;;;;;;16.42;7.60;;;;;;;3.80;76.78;100686.05;1774247;79;21115;-75
2023/10/18 04:52:08;;;;;;;14.43;7.15;;;;;;;3.80;76.69;100682.83;1774524;81;21198;-73
2023/10/18 04:54:41;;;;;;;13.55;7.00;;;;;;;3.78;76.71;100686.19;1774492;80;21131;-74
2023/10/18 04:57:11;;;;;;;16.55;6.95;;;;;;;3.80;76.69;100677.91;1764082;81;21131;-74
2023/10/18 04:59:52;;;;;;;14.63;8.43;;;;;;;3.80;76.76;100671.98;1774486;81;21589;-75
2023/10/18 05:02:25;;;;;;;15.93;7.37;;;;;;;3.84;76.74;100677.97;1774408;80;21531;-74
2023/10/18 05:04:50;;;;;;;16.65;7.28;;;;;;;3.85;76.76;100676.97;1774295;80;21115;-75
2023/10/18 05:07:20;;;;;;;19.70;9.40;;;;;;;3.89;76.80;100681.59;1774538;81;21110;-76
2023/10/18 05:09:56;;;;;;;20.95;9.55;;;;;;;3.93;76.75;100678.97;1774542;81;21095;-73
2023/10/18 05:22:35;;;;;;;12.90;7.25;;;;;;;4.18;76.59;100705.91;1699434;81;21139;-74
2023/10/18 05:25:21;;;;;;;12.05;7.00;;;;;;;4.22;76.46;100699.19;1774632;80;21160;-74
2023/10/18 05:28:09;;;;;;;18.20;7.95;;;;;;;4.25;76.33;100700.25;1774115;80;21539;-74
2023/10/18 05:36:58;;;;;;;17.73;7.42;;;;;;;4.35;76.06;100696.48;1774695;79;21080;-74
2023/10/18 05:41:29;;;;;;;19.70;10.75;;;;;;;4.45;75.86;100701.86;1774595;80;21127;-75
2023/10/18 05:43:58;;;;;;;17.15;8.63;;;;;;;4.50;75.78;100703.61;1774508;81;21096;-73
2023/10/18 05:46:28;;;;;;;18.98;8.40;;;;;;;4.54;75.68;100700.09;1763877;81;21586;-73
2023/10/18 05:49:00;;;;;;;16.35;8.20;;;;;;;4.59;75.66;100693.23;1774882;81;21100;-73
2023/10/18 05:51:32;;;;;;;19.45;8.30;;;;;;;4.63;75.47;100694.64;1774680;79;21147;-74
2023/10/18 05:54:06;;;;;;;21.10;8.68;;;;;;;4.65;75.34;100696.70;1774412;80;21586;-74
2023/10/18 05:56:36;;;;;;;15.03;8.23;;;;;;;4.70;75.31;100690.31;1749528;82;21683;-74
2023/10/18 06:01:58;;;;;;;25.00;9.35;;;;;;;4.78;75.10;100690.40;1749033;82;21142;-74
2023/10/18 06:04:37;;;;;;;20.25;8.08;;;;;;;4.82;74.97;100694.16;1750251;82;21600;-73
2023/10/18 06:07:10;;;;;;;20.35;10.85;;;;;;;4.84;74.92;100690.29;1748511;82;21149;-73
2023/10/18 06:09:46;;;;;;;26.50;14.85;;;;;;;4.88;74.90;100695.76;1749404;82;21585;-74
2023/10/18 06:12:22;;;;;;;22.02;13.10;;;;;;;4.92;74.68;100699.88;1749666;82;21161;-75
2023/10/18 06:14:51;;;;;;;21.23;10.03;;;;;;;4.93;74.67;100696.66;1748970;80;21098;-74
2023/10/18 06:17:43;;;;;;;22.32;10.45;;;;;;;4.96;74.64;100690.92;1749607;82;21110;-75
2023/10/18 06:19:59;;;;;;;21.07;10.45;;;;;;;4.97;74.59;100687.19;1746545;80;21090;-75
2023/10/18 06:22:29;;;;;;;19.00;10.13;;;;;;;5.01;74.71;100688.59;1749687;82;21562;-75
2023/10/18 06:25:00;;;;;;;19.25;11.18;;;;;;;5.06;74.73;100693.91;1749435;80;21130;-73
2023/10/18 06:27:38;;;;;;;20.95;10.32;;;;;;;5.13;74.74;100699.57;1749278;82;21067;-72
2023/10/18 06:30:01;;;;;;;18.35;9.13;;;;;;;5.17;74.65;100698.25;1748220;82;21227;-73
2023/10/18 06:32:33;;;;;;;19.48;9.55;;;;;;;5.22;74.52;100696.45;1749224;82;21596;-73
2023/10/18 06:35:14;;;;;;;22.95;13.32;;;;;;;5.26;74.48;100695.98;1749174;82;21094;-74
2023/10/18 06:37:41;;;;;;;21.48;11.25;;;;;;;5.30;74.30;100695.17;1747780;82;21138;-74
2023/10/18 06:40:08;;;;;;;25.43;10.60;;;;;;;5.29;74.25;100697.03;1748484;82;21114;-73
2023/10/18 06:42:38;;;;;;;16.12;9.63;;;;;;;5.30;74.30;100697.89;1749302;82;21146;-75
2023/10/18 06:45:15;;;;;;;18.87;10.13;;;;;;;5.31;74.42;100696.38;1720984;82;21217;-74
2023/10/18 06:47:44;;;;;;;24.20;12.63;;;;;;;5.36;74.51;100687.25;1749094;82;21611;-76
2023/10/18 06:50:14;;;;;;;24.27;13.75;;;;;;;5.41;74.46;100690.34;1749451;82;21596;-74
2023/10/18 06:52:52;;;;;;;21.60;12.25;;;;;;;5.47;74.45;100686.14;1749243;82;21229;-75
2023/10/18 06:55:16;;;;;;;22.20;12.60;;;;;;;5.53;74.30;100687.38;1757074;80;21100;-73
2023/10/18 06:57:49;;;;;;;26.80;13.00;;;;;;;5.59;74.27;100701.19;1774660;81;21143;-74
2023/10/18 07:00:17;;;;;;;27.80;13.88;;;;;;;5.66;74.35;100690.02;1774593;80;21119;-75
2023/10/18 07:02:48;;;;;;;21.45;13.03;;;;;;;5.76;74.27;100683.63;1774676;81;21210;-73
2023/10/18 07:05:18;;;;;;;18.05;10.03;;;;;;;5.82;74.16;100677.05;1774641;80;21190;-73
2023/10/18 07:07:47;;;;;;;17.42;10.88;;;;;;;5.91;73.96;100673.42;1774612;81;21084;-73
2023/10/18 07:10:53;;;;;;;18.77;10.63;;;;;;;5.96;73.86;100667.00;1774655;81;21566;-73
2023/10/18 07:12:55;;;;;;;26.07;11.08;;;;;;;6.06;73.74;100668.23;1773139;81;21637;-73
2023/10/18 07:15:28;;;;;;;15.68;8.00;;;;;;;6.14;73.63;100663.34;1774548;80;21661;-74
2023/10/18 07:17:56;;;;;;;19.77;8.35;;;;;;;6.22;73.49;100657.44;1774663;80;21191;-74
2023/10/18 07:20:32;;;;;;;15.23;7.40;;;;;;;6.32;73.34;100654.58;1774547;80;21127;-73
2023/10/18 07:22:57;;;;;;;18.48;7.60;;;;;;;6.41;72.84;100648.16;1774593;80;21104;-74
2023/10/18 07:25:27;;;;;;;16.77;6.85;;;;;;;6.48;72.44;100643.75;1774767;81;21144;-74
2023/10/18 07:28:01;;;;;;;12.35;6.60;;;;;;;6.57;72.27;100654.19;1774681;79;21107;-74
2023/10/18 07:30:44;;;;;;;13.85;5.83;;;;;;;6.65;72.06;100654.21;1774634;80;21108;-73
2023/10/18 07:33:12;;;;;;;11.18;6.45;;;;;;;6.74;71.44;100655.08;1764875;81;21627;-73
2023/10/18 07:35:45;;;;;;;13.03;5.62;;;;;;;6.84;70.98;100652.55;1774642;81;21108;-75
2023/10/18 07:38:25;;;;;;;15.18;5.85;;;;;;;6.94;70.67;100648.31;1775092;81;21154;-76
2023/10/18 07:40:57;;;;;;;12.78;6.45;;;;;;;7.18;70.42;100649.72;1775088;80;21115;-74
2023/10/18 07:43:27;;;;;;;9.50;5.03;;;;;;;7.61;69.88;100637.59;1774521;81;21543;-74
2023/10/18 07:45:58;;;;;;;15.00;6.37;;;;;;;8.22;69.06;100632.52;1774684;81;21547;-73
2023/10/18 07:48:28;;;;;;;11.75;5.53;;;;;;;8.81;66.84;100630.22;1774475;81;21581;-74
2023/10/18 07:51:03;;;;;;;14.18;7.30;;;;;;;9.34;64.82;100624.38;1759129;81;21144;-75
2023/10/18 07:53:35;;;;;;;;;;;;;;;9.82;63.24;100623.08;1764786;81;21143;-75
2023/10/18 07:56:06;;;;;;;10.35;6.10;;;;;;;10.12;61.10;100619.83;1769044;80;20171;-74
2023/10/18 07:58:47;;;;;;;13.62;6.22;;;;;;;10.30;60.47;100618.09;1689077;85;21112;-78
2023/10/18 08:01:09;;;;;;;12.10;5.92;;;;;;;10.39;59.33;100616.44;1765007;81;21141;-75
2023/10/18 08:03:42;;;;;;;13.08;6.90;;;;;;;10.39;59.01;100613.69;1767179;81;21558;-80
2023/10/18 08:06:16;;;;;;;11.03;5.55;;;;;;;10.36;58.76;100607.23;1766819;80;21171;-78
2023/10/18 08:08:46;;;;;;;13.45;5.95;;;;;;;10.35;58.62;100619.75;1688214;85;21599;-82
2023/10/18 08:11:16;;;;;;;12.35;6.50;;;;;;;10.39;59.58;100609.58;1766085;81;21175;-79
2023/10/18 08:13:45;;;;;;;12.80;6.30;;;;;;;10.59;58.24;100614.48;1688247;85;21116;-76
2023/10/18 08:16:26;;;;;;;15.68;7.58;;;;;;;10.70;57.53;100608.51;1765787;80;21143;-79
2023/10/18 08:18:59;;;;;;;8.60;5.03;;;;;;;10.87;57.21;100611.33;1765825;81;21132;-79
2023/10/18 08:21:37;;;;;;;9.23;4.70;;;;;;;11.04;55.84;100599.59;1765796;81;21160;-73
2023/10/18 08:24:08;;;;;;;9.88;5.30;;;;;;;11.03;55.61;100602.85;1688793;85;21397;-79
2023/10/18 08:26:38;;;;;;;8.98;4.45;;;;;;;11.08;55.48;100607.26;1766600;81;21099;-81
2023/10/18 08:29:07;;;;;;;9.15;4.78;;;;;;;11.00;54.64;100596.39;1759858;81;21109;-81
2023/10/18 08:31:38;;;;;;;7.58;4.67;;;;;;;10.85;54.62;100602.45;1757116;82;21101;-81
2023/10/18 08:34:15;;;;;;;9.33;4.83;;;;;;;10.71;54.94;100598.72;1757174;80;22187;-79
2023/10/18 08:36:43;;;;;;;9.03;4.47;;;;;;;10.66;55.14;100590.75;1757478;80;21152;-81
2023/10/18 08:39:13;;;;;;;9.65;5.55;;;;;;;10.64;55.50;100590.09;1757033;80;21168;-81
2023/10/18 08:41:56;;;;;;;10.32;6.28;;;;;;;10.67;55.55;100592.45;1757264;80;21118;-80
2023/10/18 08:44:26;;;;;;;12.15;5.03;;;;;;;10.66;55.38;100592.97;1754266;81;21568;-79
2023/10/18 08:47:04;;;;;;;6.95;3.60;;;;;;;10.67;55.48;100589.70;1757190;80;21152;-78
2023/10/18 08:49:32;;;;;;;6.50;3.92;;;;;;;10.63;55.28;100591.99;1756525;80;21144;-79
2023/10/18 08:52:06;;;;;;;9.05;4.80;;;;;;;10.57;55.62;100590.55;1756842;80;21140;-80
2023/10/18 08:54:30;;;;;;;9.53;4.10;;;;;;;10.56;55.58;100586.95;1756328;81;21653;-79
2023/10/18 08:57:06;;;;;;;6.87;4.50;;;;;;;10.54;55.60;100584.92;1755368;80;21115;-79
2023/10/18 08:59:30;;;;;;;10.35;3.90;;;;;;;10.50;55.75;100578.14;1780533;80;21142;-78
2023/10/18 09:02:12;;;;;;;7.67;3.27;;;;;;;10.51;55.68;100588.05;1780992;80;21123;-78
2023/10/18 09:04:44;;;;;;;6.85;3.85;;;;;;;10.55;55.37;100585.78;1781252;80;21155;-79
2023/10/18 09:09:59;;;;;;;;;;;;;;;10.59;54.90;100570.65;1784096;80;21178;-79
2023/10/18 09:13:32;;;;;;;5.08;2.52;;;;;;;10.58;54.72;100557.99;1782161;80;20218;-79
2023/10/18 09:15:26;;;;;;;6.90;3.40;;;;;;;10.55;54.84;100550.16;1762490;80;21154;-76
2023/10/18 09:17:36;;;;;;;9.25;2.67;;;;;;;10.58;54.51;100553.36;1776773;80;21158;-77
2023/10/18 09:20:08;;;;;;;8.73;3.60;;;;;;;10.60;53.90;100551.28;1714256;83;21127;-78
2023/10/18 09:22:38;;;;;;;8.18;3.77;;;;;;;10.57;53.59;100543.97;1781005;80;21099;-78
2023/10/18 09:25:08;;;;;;;10.28;5.37;;;;;;;10.52;53.65;100547.28;1781140;80;21640;-79
2023/10/18 09:27:38;;;;;;;8.95;4.40;;;;;;;10.51;52.97;100548.85;1714293;83;21131;-78
2023/10/18 09:30:13;;;;;;;10.68;3.80;;;;;;;10.48;52.14;100538.61;1781333;80;21178;-76
2023/10/18 09:32:39;;;;;;;5.50;3.15;;;;;;;10.50;51.90;100532.94;1780942;80;21095;-79
2023/10/18 09:35:09;;;;;;;4.55;2.98;;;;;;;10.54;52.00;100527.91;1685206;84;21546;-79
2023/10/18 09:37:39;;;;;;;11.45;3.58;;;;;;;10.55;51.91;100526.35;1781161;80;21139;-80
2023/10/18 09:40:11;;;;;;;7.00;3.95;;;;;;;10.59;51.97;100522.18;1781192;80;21178;-78
2023/10/18 09:42:44;;;;;;;6.42;3.27;;;;;;;10.68;51.44;100524.27;1781093;80;21542;-79
2023/10/18 09:45:14;;;;;;;6.25;2.70;;;;;;;10.72;51.10;100518.20;1781169;80;21111;-80
2023/10/18 09:47:45;;;;;;;6.60;2.72;;;;;;;10.76;50.65;100508.55;1781076;80;21101;-81
2023/10/18 09:50:23;;;;;;;5.35;3.00;;;;;;;10.81;50.95;100503.84;1781053;80;21107;-79
2023/10/18 09:52:56;;;;;;;7.60;3.37;;;;;;;10.84;50.77;100501.23;1780112;80;21158;-79
2023/10/18 09:55:20;;;;;;;7.25;3.20;;;;;;;10.84;50.91;100494.37;1713533;84;21575;-81
2023/10/18 09:58:06;;;;;;;10.10;2.62;;;;;;;10.86;51.73;100489.02;1781580;80;21174;-80
2023/10/18 10:00:42;;;;;;;5.83;2.60;;;;;;;10.92;50.96;100487.38;1782859;79;21131;-81
2023/10/18 10:03:08;;;;;;;4.87;2.50;;;;;;;10.91;50.27;100487.05;1782581;80;21135;-81
2023/10/18 10:05:43;;;;;;;6.15;3.40;;;;;;;10.90;49.43;100485.36;1782660;80;21598;-82
2023/10/18 10:08:13;;;;;;;5.95;2.60;;;;;;;10.85;49.15;100481.84;1782649;79;21546;-82
2023/10/18 10:10:45;;;;;;;5.65;2.90;;;;;;;10.80;49.07;100478.33;1782548;79;21413;-80
2023/10/18 10:13:25;;;;;;;4.50;2.98;;;;;;;10.77;49.23;100471.02;1782659;79;21134;-82
2023/10/18 10:16:02;;;;;;;5.15;2.15;;;;;;;10.74;49.58;100470.89;1782356;80;21171;-79
2023/10/18 10:18:34;;;;;;;4.78;2.47;;;;;;;10.75;49.36;100473.11;1782844;80;21205;-81
2023/10/18 10:21:06;;;;;;;6.97;3.08;;;;;;;10.72;49.11;100466.66;1782548;80;21131;-78
2023/10/18 10:23:38;;;;;;;5.90;2.10;;;;;;;10.69;49.00;100467.05;1782702;80;21122;-74
2023/10/18 10:26:15;;;;;;;4.28;2.62;;;;;;;10.65;49.22;100463.00;1782924;80;21166;-78
2023/10/18 10:31:26;;;;;;;4.33;2.72;;;;;;;10.60;49.64;100458.64;1751960;79;21582;-78
2023/10/18 10:34:05;;;;;;;6.08;2.47;;;;;;;10.60;49.97;100453.16;1782521;80;21127;-74
2023/10/18 10:36:37;;;;;;;5.15;2.50;;;;;;;10.60;50.25;100448.52;1782690;80;21084;-80
2023/10/18 10:39:12;;;;;;;5.80;2.60;;;;;;;10.61;50.63;100445.27;1764096;80;21103;-76
2023/10/18 10:41:40;;;;;;;5.95;2.70;;;;;;;10.60;50.87;100445.78;1784407;80;21159;-79
2023/10/18 10:44:30;;;;;;;5.92;2.52;;;;;;;10.61;51.04;100438.41;1782812;80;21139;-79
2023/10/18 10:47:18;;;;;;;6.00;2.60;;;;;;;10.62;51.17;100432.73;1782909;80;21103;-82
2023/10/18 10:49:48;;;;;;;5.72;2.52;;;;;;;10.66;51.06;100431.81;1772821;80;21539;-81
2023/10/18 10:52:19;;;;;;;6.47;2.65;;;;;;;10.68;50.89;100431.95;1782535;79;21087;-79
2023/10/18 10:54:53;;;;;;;5.78;3.08;;;;;;;10.70;50.49;100431.23;1782556;80;21104;-77
2023/10/18 10:57:27;;;;;;;5.15;2.55;;;;;;;10.69;49.58;100428.16;1776825;80;21084;-79
2023/10/18 10:59:57;;;;;;;6.53;2.87;;;;;;;10.68;49.74;100421.51;1750500;81;21586;-79
2023/10/18 11:02:40;;;;;;;5.60;3.08;;;;;;;10.67;49.48;100425.30;1664188;84;21644;-80
2023/10/18 11:05:16;;;;;;;7.62;2.98;;;;;;;10.65;48.85;100428.75;1772864;81;21147;-79
2023/10/18 11:07:46;;;;;;;9.05;5.28;;;;;;;10.61;48.56;100426.09;1687831;84;21167;-77
2023/10/18 11:10:16;;;;;;;7.03;4.33;;;;;;;10.57;48.57;100420.16;1751688;81;21527;-79
2023/10/18 11:12:48;;;;;;;7.85;3.75;;;;;;;10.55;48.68;100418.66;1772783;81;21598;-79
2023/10/18 11:15:17;;;;;;;7.58;4.03;;;;;;;10.55;48.60;100415.91;1706530;84;21179;-78
2023/10/18 11:17:48;;;;;;;5.70;2.92;;;;;;;10.56;48.92;100414.88;1772821;81;21159;-79
2023/10/18 11:20:19;;;;;;;5.00;3.10;;;;;;;10.56;48.66;100407.50;1706509;84;21159;-79
2023/10/18 11:22:50;;;;;;;7.33;3.47;;;;;;;10.57;48.82;100401.49;1772878;81;21162;-79
2023/10/18 11:25:20;;;;;;;6.10;2.95;;;;;;;10.58;48.75;100411.41;1706757;84;21632;-77
2023/10/18 11:27:49;;;;;;;6.22;3.60;;;;;;;10.59;48.22;100402.99;1751684;81;21992;-77
2023/10/18 11:30:28;;;;;;;4.55;2.95;;;;;;;10.60;48.07;100399.73;1706586;84;21182;-78
2023/10/18 11:32:58;;;;;;;4.67;2.92;;;;;;;10.58;47.85;100394.97;1773027;81;21167;-79
2023/10/18 11:35:42;;;;;;;5.08;3.00;;;;;;;10.55;47.76;100398.95;1706560;84;21135;-77
2023/10/18 11:38:13;;;;;;;5.70;3.25;;;;;;;10.52;48.02;100398.50;1772475;80;21612;-79
2023/10/18 11:40:43;;;;;;;5.08;2.75;;;;;;;10.50;48.26;100396.48;1751564;81;21123;-77
2023/10/18 11:43:20;;;;;;;7.97;3.08;;;;;;;10.49;48.38;100390.16;1703992;81;21134;-80
2023/10/18 11:45:45;;;;;;;7.92;3.00;;;;;;;10.50;48.72;100385.52;1751218;81;21588;-79
2023/10/18 11:48:14;;;;;;;6.05;2.60;;;;;;;10.53;48.92;100375.02;1706809;84;21159;-79
2023/10/18 11:50:47;;;;;;;4.60;2.72;;;;;;;10.56;48.77;100377.88;1772901;81;21652;-78
2023/10/18 11:53:18;;;;;;;5.78;2.67;;;;;;;10.58;48.77;100374.42;1706807;84;21108;-79
2023/10/18 11:56:00;;;;;;;4.47;2.90;;;;;;;10.57;48.63;100374.09;1751297;81;21662;-80
2023/10/18 11:58:33;;;;;;;5.87;3.00;;;;;;;10.54;48.82;100367.13;1752001;81;21641;-79
2023/10/18 12:01:17;;;;;;;8.60;2.77;;;;;;;10.55;48.92;100368.81;1743777;81;21681;-79
2023/10/18 12:03:48;;;;;;;7.05;3.52;;;;;;;10.58;49.25;100367.58;1734744;82;21121;-79
2023/10/18 12:06:21;;;;;;;4.70;3.17;;;;;;;10.61;49.76;100369.39;1743947;82;21188;-78
2023/10/18 12:09:42;;;;;;;8.00;3.15;;;;;;;10.66;50.27;100367.42;1744059;82;21125;-78
2023/10/18 12:11:25;;;;;;;9.33;3.80;;;;;;;10.66;50.67;100363.31;1728871;82;21572;-79
2023/10/18 12:13:55;;;;;;;6.72;3.20;;;;;;;10.67;50.87;100356.79;1743920;81;21122;-79
2023/10/18 12:16:25;;;;;;;8.35;3.72;;;;;;;10.64;51.27;100359.41;1743982;82;21574;-77
2023/10/18 12:18:55;;;;;;;11.57;3.65;;;;;;;10.64;51.37;100353.92;1743882;82;21137;-80
2023/10/18 12:21:29;;;;;;;8.80;3.27;;;;;;;10.69;51.48;100358.80;1743806;82;21588;-79